Time;durP1;ratioP1;P1;durP2;ratioP2;P2;SDS_P1;SDS_P2;PMS_P1;PMS_P2;Temp;Humidity;BMP_temperature;BMP_pressure;BME280_temperature;BME280_humidity;BME280_pressure;Samples;Min_cycle;Max_cycle;Signal;HPM_P1;HPM_P2
2024/01/16 00:03:11;;;;;;;8.20;6.90;;;-0.70;99.90;;;-0.18;85.33;97330.16;10452858;28;20228;-65
2024/01/16 00:08:15;;;;;;;8.87;6.37;;;-0.70;99.90;;;-0.19;85.17;97328.38;10453611;28;20265;-64
2024/01/16 00:13:19;;;;;;;7.67;7.00;;;-0.70;99.90;;;-0.22;85.76;97325.59;10448600;28;20234;-64
2024/01/16 00:18:22;;;;;;;7.13;6.43;;;-0.80;99.90;;;-0.27;85.42;97324.31;10469108;28;20720;-65
2024/01/16 00:23:26;;;;;;;7.53;6.80;;;-0.80;99.90;;;-0.21;85.16;97322.34;10468865;28;20238;-64
2024/01/16 00:28:32;;;;;;;8.67;6.83;;;-0.80;99.90;;;-0.18;84.69;97325.13;10467101;28;20657;-65
2024/01/16 00:33:36;;;;;;;7.03;6.30;;;-0.80;99.90;;;-0.13;84.91;97336.47;10463989;28;20635;-63
2024/01/16 00:38:39;;;;;;;7.67;6.40;;;-0.80;99.90;;;-0.12;84.69;97330.69;10479018;28;20380;-64
2024/01/16 00:43:44;;;;;;;7.00;6.17;;;-0.70;99.90;;;-0.17;84.57;97333.53;10456669;28;20235;-64
2024/01/16 00:48:47;;;;;;;9.17;7.03;;;-0.90;99.90;;;-0.35;84.93;97337.81;10471748;28;20467;-64
2024/01/16 00:53:51;;;;;;;7.37;6.60;;;-0.90;99.90;;;-0.42;85.07;97348.94;10445762;28;20226;-64
2024/01/16 00:58:55;;;;;;;7.73;6.70;;;-1.10;99.90;;;-0.43;85.87;97346.25;10455054;28;20237;-64
2024/01/16 01:03:59;;;;;;;7.40;6.60;;;-1.00;99.90;;;-0.37;86.42;97361.88;10466862;28;20226;-64
2024/01/16 01:09:02;;;;;;;9.00;7.00;;;-1.00;99.90;;;-0.36;85.59;97349.47;10434519;28;20259;-64
2024/01/16 01:14:07;;;;;;;8.27;6.47;;;-1.00;99.90;;;-0.30;85.68;97359.19;10438482;28;20235;-64
2024/01/16 01:19:10;;;;;;;7.23;6.10;;;-0.90;99.90;;;-0.10;83.66;97360.97;10461349;28;20706;-64
2024/01/16 01:24:14;;;;;;;7.40;6.07;;;-0.80;99.90;;;-0.25;84.95;97357.97;10460567;28;20689;-65
2024/01/16 01:29:18;;;;;;;7.43;6.47;;;-0.80;99.90;;;-0.28;84.21;97371.13;10453058;28;20606;-64
2024/01/16 01:34:21;;;;;;;6.67;5.97;;;-0.80;99.90;;;-0.29;84.99;97386.94;10450087;28;20253;-63
2024/01/16 01:39:25;;;;;;;8.83;6.00;;;-0.80;99.90;;;-0.27;85.20;97390.47;10462399;28;20330;-65
2024/01/16 01:44:29;;;;;;;7.87;6.93;;;-0.90;99.90;;;-0.32;85.19;97395.81;10458495;28;20234;-63
2024/01/16 01:49:33;;;;;;;8.30;6.63;;;-0.90;99.90;;;-0.31;85.80;97402.63;10447310;28;20231;-66
2024/01/16 01:54:38;;;;;;;8.00;6.63;;;-0.90;99.90;;;-0.33;85.46;97399.97;10473009;28;20223;-63
2024/01/16 01:59:42;;;;;;;7.07;6.33;;;-0.90;99.90;;;-0.34;85.54;97395.69;10460410;28;20225;-64
2024/01/16 02:04:46;;;;;;;7.93;6.67;;;-1.00;99.90;;;-0.33;85.87;97406.63;10438249;28;20661;-64
2024/01/16 02:09:51;;;;;;;7.63;6.77;;;-1.00;99.90;;;-0.39;86.78;97411.06;10445555;28;20263;-64
2024/01/16 02:14:55;;;;;;;7.60;6.70;;;-1.00;99.90;;;-0.39;87.07;97414.47;10460991;28;20231;-64
2024/01/16 02:19:58;;;;;;;8.60;6.93;;;-1.00;99.90;;;-0.39;87.61;97416.09;10449614;28;20356;-64
2024/01/16 02:25:03;;;;;;;8.00;6.40;;;-1.00;99.90;;;-0.33;86.67;97406.63;10438044;28;20233;-64
2024/01/16 02:30:08;;;;;;;9.03;6.77;;;-1.00;99.90;;;-0.31;85.79;97402.63;10458614;28;20710;-65
2024/01/16 02:35:11;;;;;;;7.90;6.07;;;-1.00;99.90;;;-0.39;85.76;97423.63;10449301;28;20258;-64
2024/01/16 02:40:16;;;;;;;6.97;6.33;;;-1.00;99.90;;;-0.39;86.13;97416.09;10474114;28;20308;-66
2024/01/16 02:45:19;;;;;;;6.93;5.73;;;-1.00;99.90;;;-0.21;84.48;97405.19;10441129;28;20596;-65
2024/01/16 02:50:22;;;;;;;7.30;6.07;;;-0.90;99.90;;;-0.37;84.75;97409.56;10443989;28;20230;-63
2024/01/16 02:55:27;;;;;;;7.40;6.07;;;-1.00;99.90;;;-0.37;85.68;97404.53;10475522;28;20244;-66
2024/01/16 03:00:30;;;;;;;9.07;5.90;;;-1.00;99.90;;;-0.42;85.14;97395.75;10460907;28;20223;-65
2024/01/16 03:05:33;;;;;;;7.93;6.53;;;-1.10;99.90;;;-0.63;85.13;97388.03;10447086;28;20363;-63
2024/01/16 03:10:38;;;;;;;6.77;5.90;;;-1.20;99.90;;;-0.74;85.66;97391.16;10457245;28;20347;-67
2024/01/16 03:15:41;;;;;;;6.87;6.10;;;-1.40;99.90;;;-0.82;85.06;97399.59;10464060;28;20628;-65
2024/01/16 03:20:45;;;;;;;6.43;5.70;;;-1.50;99.90;;;-0.76;85.69;97390.13;10462000;28;20253;-64
2024/01/16 03:25:49;;;;;;;7.37;6.17;;;-1.40;99.90;;;-0.87;86.26;97395.78;10456038;28;20606;-65
2024/01/16 03:30:53;;;;;;;6.67;5.97;;;-1.50;99.90;;;-0.81;85.95;97404.75;10443279;28;20222;-65
2024/01/16 03:35:57;;;;;;;7.50;6.70;;;-1.50;99.90;;;-0.79;87.20;97399.88;10448051;28;21142;-64
2024/01/16 03:41:03;;;;;;;7.60;6.47;;;-1.40;99.90;;;-0.84;86.94;97401.97;10480907;28;20313;-63
2024/01/16 03:46:07;;;;;;;6.40;5.90;;;-1.40;99.90;;;-0.86;87.94;97392.53;10469000;28;20236;-64
2024/01/16 03:51:10;;;;;;;8.00;6.63;;;-1.50;99.90;;;-0.99;87.45;97388.88;10457185;28;20744;-63
2024/01/16 03:56:16;;;;;;;6.30;5.70;;;-1.70;99.90;;;-1.13;87.07;97392.59;10469178;28;20232;-65
2024/01/16 04:01:19;;;;;;;6.40;5.80;;;-1.80;99.90;;;-1.30;87.59;97387.63;10465792;28;20227;-64
2024/01/16 04:06:22;;;;;;;6.27;5.67;;;-2.00;99.90;;;-1.34;86.33;97380.56;10465881;28;20315;-65
2024/01/16 04:11:27;;;;;;;8.27;6.50;;;-2.10;99.90;;;-1.47;87.79;97397.69;10439058;28;20326;-64
2024/01/16 04:16:30;;;;;;;7.03;5.93;;;-2.20;99.90;;;-1.55;86.63;97403.59;10479044;28;20232;-66
2024/01/16 04:21:33;;;;;;;7.43;6.40;;;-2.20;99.90;;;-1.65;86.66;97401.84;10449229;28;20224;-64
2024/01/16 04:26:38;;;;;;;6.23;5.63;;;-2.30;99.90;;;-1.78;88.11;97398.88;10468176;28;20232;-63
2024/01/16 04:31:42;;;;;;;7.17;5.70;;;-2.50;99.90;;;-1.86;88.21;97405.66;10433207;28;20233;-62
2024/01/16 04:36:45;;;;;;;7.20;6.00;;;-2.50;99.90;;;-1.95;87.29;97410.66;10457262;28;20270;-63
2024/01/16 04:41:50;;;;;;;7.67;6.57;;;-2.70;99.90;;;-2.03;88.53;97416.56;10446214;28;20225;-65
2024/01/16 04:46:53;;;;;;;8.23;6.67;;;-2.70;99.90;;;-2.15;88.63;97415.34;10471871;28;20236;-65
2024/01/16 04:51:56;;;;;;;8.43;6.47;;;-2.80;99.90;;;-2.11;88.25;97417.44;10453642;28;20239;-65
2024/01/16 04:57:01;;;;;;;7.13;6.43;;;-2.70;99.90;;;-2.09;89.19;97414.34;10471273;28;20581;-64
2024/01/16 05:02:04;;;;;;;9.43;6.60;;;-2.70;99.90;;;-2.04;89.89;97423.16;10451227;28;20244;-64
2024/01/16 05:07:07;;;;;;;7.67;6.57;;;-2.70;99.90;;;-2.04;90.17;97417.28;10460120;28;20231;-64
2024/01/16 05:12:12;;;;;;;9.27;8.37;;;-2.70;99.90;;;-2.12;89.89;97410.63;10460225;28;20323;-63
2024/01/16 05:17:15;;;;;;;8.13;7.40;;;-2.70;99.90;;;-2.05;90.19;97403.88;10455130;28;20731;-63
2024/01/16 05:22:18;;;;;;;8.30;7.17;;;-2.70;99.90;;;-2.17;91.35;97406.81;10457131;28;20228;-64
2024/01/16 05:27:23;;;;;;;8.37;7.47;;;-2.80;99.90;;;-2.21;91.00;97394.72;10467060;28;20232;-64
2024/01/16 05:32:26;;;;;;;11.87;8.70;;;-2.80;99.90;;;-2.23;90.04;97393.69;10442580;28;20323;-64
2024/01/16 05:37:29;;;;;;;76.00;50.90;;;-2.90;99.90;;;-2.28;91.24;97379.13;10451244;28;20232;-63
2024/01/16 05:42:34;;;;;;;15.33;12.07;;;-3.00;99.90;;;-2.40;91.88;97377.94;10440240;28;20224;-66
2024/01/16 05:47:37;;;;;;;9.67;8.60;;;-3.10;99.90;;;-2.52;91.27;97370.09;10440081;28;20233;-63
2024/01/16 05:52:41;;;;;;;9.40;7.77;;;-3.20;99.90;;;-2.56;91.99;97364.63;10467439;28;20224;-64
2024/01/16 05:57:49;;;;;;;11.77;9.80;;;-3.30;99.90;;;-2.75;91.53;97372.84;10431663;28;20232;-64
2024/01/16 06:02:52;;;;;;;48.30;28.43;;;-3.40;99.90;;;-2.81;91.92;97372.19;10441748;28;20767;-64
2024/01/16 06:07:56;;;;;;;26.63;17.10;;;-3.50;99.90;;;-2.89;91.63;97360.56;10444590;28;20229;-64
2024/01/16 06:13:01;;;;;;;13.10;9.40;;;-3.60;99.90;;;-2.89;92.26;97368.06;10445139;28;20216;-63
2024/01/16 06:18:05;;;;;;;10.00;8.33;;;-3.60;99.90;;;-2.87;92.42;97375.72;10458814;28;20236;-64
2024/01/16 06:23:08;;;;;;;30.17;17.23;;;-3.60;99.90;;;-2.89;92.05;97368.06;10438919;28;20436;-64
2024/01/16 06:28:13;;;;;;;24.60;14.93;;;-3.60;99.90;;;-2.89;92.54;97360.56;10438523;28;21283;-63
2024/01/16 06:33:16;;;;;;;16.43;10.90;;;-3.50;99.90;;;-2.85;93.32;97362.63;10427280;28;20236;-63
2024/01/16 06:38:19;;;;;;;11.90;9.27;;;-3.50;99.90;;;-2.83;92.33;97361.19;10449698;28;20228;-62
2024/01/16 06:43:24;;;;;;;9.47;8.40;;;-3.50;99.90;;;-2.85;93.79;97365.13;10459948;28;20319;-63
2024/01/16 06:48:27;;;;;;;10.10;8.43;;;-3.50;99.90;;;-2.78;93.32;97370.00;10453112;28;20235;-64
2024/01/16 06:53:31;;;;;;;10.27;8.30;;;-3.40;99.90;;;-2.86;94.38;97359.97;10439297;28;20220;-65
2024/01/16 06:58:36;;;;;;;9.17;8.10;;;-3.50;99.90;;;-2.82;94.82;97360.44;10465383;28;20239;-64
2024/01/16 07:03:39;;;;;;;8.53;7.73;;;-3.40;99.90;;;-2.69;93.72;97370.03;10445721;28;20611;-66
2024/01/16 07:08:42;;;;;;;9.00;8.17;;;-3.30;99.90;;;-2.67;93.59;97375.19;10475964;28;20255;-65
2024/01/16 07:13:47;;;;;;;13.13;10.53;;;-3.30;99.90;;;-2.76;93.29;97371.03;10462739;28;20224;-65
2024/01/16 07:18:50;;;;;;;13.57;11.33;;;-3.40;99.90;;;-2.76;94.41;97381.03;10432665;28;20750;-65
2024/01/16 07:23:53;;;;;;;11.10;9.90;;;-3.40;99.90;;;-2.70;93.51;97382.41;10426367;28;20221;-65
2024/01/16 07:28:58;;;;;;;9.10;7.20;;;-3.40;99.90;;;-2.78;93.72;97376.63;10418240;28;20245;-65
2024/01/16 07:34:01;;;;;;;7.23;6.20;;;-3.40;99.90;;;-2.71;93.80;97386.53;10427174;28;20605;-65
2024/01/16 07:39:04;;;;;;;7.63;6.50;;;-3.30;99.90;;;-2.63;93.17;97374.75;10423015;28;20217;-66
2024/01/16 07:44:09;;;;;;;6.90;6.30;;;-3.30;99.90;;;-2.57;93.08;97383.78;10431235;28;20224;-64
2024/01/16 07:49:12;;;;;;;10.20;9.20;;;-3.20;99.90;;;-2.48;94.18;97378.78;10437633;28;20239;-63
2024/01/16 07:54:15;;;;;;;6.90;6.17;;;-3.10;99.90;;;-2.57;93.01;97392.91;10423340;28;20381;-64
2024/01/16 07:59:20;;;;;;;7.37;6.13;;;-3.20;99.90;;;-2.54;93.06;97389.06;10429990;28;20224;-66
2024/01/16 08:04:23;;;;;;;6.57;5.90;;;-3.20;99.90;;;-2.42;92.48;97391.88;10434564;28;20229;-64
2024/01/16 08:09:26;;;;;;;7.07;5.53;;;-3.10;99.90;;;-2.46;92.26;97387.34;10439430;28;20237;-64
2024/01/16 08:14:31;;;;;;;6.20;5.70;;;-3.20;99.90;;;-2.39;93.84;97393.81;10474274;28;20305;-64
2024/01/16 08:19:34;;;;;;;6.80;6.03;;;-3.00;99.90;;;-2.20;93.66;97397.41;10468728;28;20728;-64
2024/01/16 08:24:38;;;;;;;42.13;38.33;;;-2.80;99.90;;;-1.90;91.74;97386.06;10486170;28;20224;-64
2024/01/16 08:29:43;;;;;;;8.80;7.90;;;-2.70;99.90;;;-2.06;92.35;97384.59;10493613;28;20232;-63
2024/01/16 08:34:46;;;;;;;8.03;7.33;;;-2.70;99.90;;;-1.82;91.79;97383.56;10487039;28;20224;-64
2024/01/16 08:39:50;;;;;;;8.27;7.47;;;-2.40;99.90;;;-1.52;92.00;97386.34;10450945;28;20865;-65
2024/01/16 08:44:55;;;;;;;7.93;7.07;;;-2.10;99.90;;;-1.40;91.17;97395.03;10462006;28;20228;-64
2024/01/16 08:49:58;;;;;;;8.33;7.43;;;-2.10;99.90;;;-1.23;90.23;97391.59;10472499;28;20240;-65
2024/01/16 08:55:01;;;;;;;7.33;6.63;;;-1.80;99.90;;;-1.03;89.28;97391.88;10479360;28;20235;-64
2024/01/16 09:00:08;;;;;;;7.80;7.07;;;-1.60;99.90;;;-0.86;88.66;97385.88;10478111;28;20256;-64
2024/01/16 09:05:13;;;;;;;8.37;7.57;;;-1.50;99.90;;;-0.72;86.80;97379.63;10476411;28;20756;-64
2024/01/16 09:10:17;;;;;;;7.03;6.17;;;-1.40;99.90;;;-0.81;82.30;97376.28;10488991;28;20789;-66
2024/01/16 09:15:21;;;;;;;9.30;7.60;;;-1.40;99.90;;;-0.43;82.86;97391.44;10465477;28;20240;-63
2024/01/16 09:20:24;;;;;;;8.80;7.90;;;-1.10;99.90;;;-0.39;83.99;97391.00;10457131;28;20326;-64
2024/01/16 09:25:31;;;;;;;10.83;8.63;;;-1.10;99.90;;;-0.31;84.44;97395.09;10452115;28;20232;-66
2024/01/16 09:30:35;;;;;;;7.97;7.17;;;-1.00;99.90;;;-0.23;81.94;97399.16;10440748;28;20742;-65
2024/01/16 09:35:38;;;;;;;6.90;5.93;;;-0.90;99.90;;;-0.22;78.47;97405.97;10458261;28;22149;-66
2024/01/16 09:40:42;;;;;;;8.53;7.63;;;-0.80;99.90;;;-0.12;77.83;97410.16;10427014;28;20256;-65
2024/01/16 09:45:48;;;;;;;6.87;6.27;;;-0.80;99.90;;;0.07;77.76;97406.06;10471031;28;20219;-65
2024/01/16 09:50:51;;;;;;;7.37;5.63;;;-0.60;99.90;;;0.10;75.72;97398.78;10450246;28;20233;-64
2024/01/16 09:56:01;;;;;;;6.13;5.57;;;-0.50;99.90;;;0.16;76.08;97399.34;10423157;28;20234;-64
2024/01/16 10:01:06;;;;;;;7.67;6.87;;;-0.40;99.90;;;0.31;76.28;97394.78;10459766;28;20233;-66
2024/01/16 10:06:11;;;;;;;6.93;6.17;;;-0.40;99.90;;;0.29;76.41;97393.78;10464720;28;20222;-65
2024/01/16 10:11:14;;;;;;;7.57;6.87;;;-0.40;99.90;;;0.43;75.56;97388.34;10452265;28;20237;-66
2024/01/16 10:16:20;;;;;;;7.50;6.53;;;-0.20;99.90;;;0.43;74.75;97405.06;10460990;28;20259;-66
2024/01/16 10:21:31;;;;;;;6.90;6.30;;;-0.20;99.90;;;0.50;75.38;97388.88;10459175;28;20621;-66
2024/01/16 10:26:34;;;;;;;8.10;7.20;;;-0.10;99.90;;;0.72;72.96;97384.09;10466470;28;20227;-65
2024/01/16 10:31:40;;;;;;;8.97;7.40;;;0.00;99.90;;;0.73;73.02;97370.75;10461410;28;20311;-65
2024/01/16 10:36:43;;;;;;;8.70;7.10;;;0.10;99.90;;;0.80;73.36;97368.91;10444024;28;20372;-65
2024/01/16 10:41:56;;;;;;;8.40;7.60;;;0.10;99.90;;;0.89;73.86;97359.63;10451328;28;20229;-66
2024/01/16 10:47:15;;;;;;;8.17;7.10;;;0.30;99.90;;;0.92;72.35;97348.03;10450583;28;20703;-65
2024/01/16 10:52:19;;;;;;;7.57;6.80;;;0.30;99.90;;;1.03;72.46;97347.31;10477136;28;20767;-66
2024/01/16 10:57:25;;;;;;;6.73;6.10;;;0.50;99.90;;;1.05;70.57;97345.84;10470739;28;20228;-65
2024/01/16 11:02:38;;;;;;;7.20;6.50;;;0.40;99.90;;;1.23;70.69;97347.41;10459753;28;20223;-65
2024/01/16 11:07:43;;;;;;;8.13;7.17;;;0.60;99.90;;;1.40;68.86;97341.22;10462354;28;20226;-64
2024/01/16 11:12:47;;;;;;;7.30;6.47;;;0.80;99.90;;;1.58;69.83;97341.91;10443476;28;20238;-65
2024/01/16 11:17:52;;;;;;;6.77;6.17;;;0.90;99.90;;;1.72;66.64;97343.91;10474449;28;20234;-64
2024/01/16 11:22:59;;;;;;;7.30;6.40;;;1.10;99.90;;;1.88;68.45;97323.38;10454117;28;20238;-65
2024/01/16 11:28:10;;;;;;;6.00;5.40;;;1.20;99.90;;;2.09;66.39;97304.06;10474378;28;20377;-64
2024/01/16 11:33:46;;;;;;;6.00;5.30;;;1.50;99.90;;;2.28;65.93;97291.28;10449392;28;20225;-64
2024/01/16 11:38:57;;;;;;;7.03;5.10;;;1.70;99.90;;;2.26;64.15;97277.66;10438435;28;20304;-63
2024/01/16 11:44:00;;;;;;;5.63;5.00;;;1.60;99.90;;;2.20;66.53;97273.03;10480638;28;20324;-64
2024/01/16 11:49:05;;;;;;;6.27;5.70;;;1.50;99.90;;;2.28;64.45;97257.63;10486626;28;20224;-64
2024/01/16 11:54:09;;;;;;;6.57;5.73;;;1.60;99.90;;;2.30;65.47;97257.00;10476088;28;20227;-65
2024/01/16 12:00:12;;;;;;;5.43;4.90;;;1.80;99.90;;;2.47;63.94;97233.09;10455717;28;20232;-63
2024/01/16 12:05:17;;;;;;;7.13;5.13;;;2.00;99.90;;;2.61;62.90;97230.00;10457904;28;20214;-63
2024/01/16 12:10:23;;;;;;;6.57;5.43;;;2.00;99.90;;;2.42;62.82;97224.28;10440559;28;20235;-63
2024/01/16 12:15:27;;;;;;;5.37;4.87;;;1.90;99.90;;;2.34;63.42;97220.28;10461923;28;20228;-63
2024/01/16 12:20:33;;;;;;;6.20;5.13;;;1.70;99.90;;;2.35;63.37;97220.41;10448733;28;20227;-64
2024/01/16 12:25:38;;;;;;;6.63;4.50;;;1.70;99.90;;;2.41;65.39;97223.41;10451745;28;20220;-64
2024/01/16 12:31:02;;;;;;;6.00;5.10;;;1.80;99.90;;;2.39;62.97;97209.78;10473796;28;20550;-65
2024/01/16 12:36:10;;;;;;;5.50;4.97;;;1.90;99.90;;;2.44;62.29;97198.44;10469601;28;20369;-64
2024/01/16 12:41:14;;;;;;;5.63;5.10;;;1.90;99.90;;;2.39;61.48;97181.19;10444775;28;20734;-65
2024/01/16 12:46:19;;;;;;;5.80;5.20;;;1.90;99.90;;;2.39;61.28;97168.56;10458148;28;20257;-64
2024/01/16 12:51:24;;;;;;;8.00;4.77;;;1.90;99.90;;;2.31;61.44;97170.50;10460474;28;20247;-64
2024/01/16 12:56:27;;;;;;;6.60;5.40;;;1.80;99.90;;;2.38;60.29;97169.34;10465430;28;20228;-64
2024/01/16 13:01:43;;;;;;;7.00;6.30;;;1.80;99.90;;;2.53;60.95;97172.16;10479066;28;20261;-64
2024/01/16 13:06:48;;;;;;;8.70;5.77;;;1.90;99.90;;;2.34;61.34;97160.66;10450879;28;20235;-65
2024/01/16 13:11:54;;;;;;;9.53;7.30;;;1.70;99.90;;;2.24;62.55;97154.03;10459881;28;20235;-66
2024/01/16 13:17:01;;;;;;;11.00;8.90;;;1.70;99.90;;;2.41;61.32;97141.84;10446124;28;20814;-65
2024/01/16 13:22:06;;;;;;;5.60;5.10;;;1.90;99.90;;;2.60;62.62;97139.94;10466041;28;20233;-64
2024/01/16 13:27:12;;;;;;;4.00;3.63;;;2.10;99.90;;;2.73;60.36;97130.78;10448977;28;20657;-65
2024/01/16 13:32:16;;;;;;;6.17;3.70;;;2.20;99.90;;;3.16;57.20;97113.00;10457364;28;20289;-64
2024/01/16 13:37:23;;;;;;;3.97;3.50;;;2.60;99.90;;;2.88;56.51;97109.22;10443662;28;20771;-65
2024/01/16 13:42:26;;;;;;;3.93;3.63;;;2.30;99.90;;;2.65;59.29;97108.38;10473490;28;20612;-65
2024/01/16 13:47:29;;;;;;;3.73;3.43;;;2.20;99.90;;;2.50;61.72;97102.19;10479195;28;20236;-65
2024/01/16 13:52:35;;;;;;;3.67;3.33;;;2.00;99.90;;;2.53;61.07;97102.41;10473179;28;20414;-64
2024/01/16 13:57:38;;;;;;;3.40;3.10;;;2.00;99.90;;;2.68;56.72;97103.56;10453223;28;20230;-65
2024/01/16 14:02:42;;;;;;;3.97;3.67;;;2.10;99.90;;;2.66;59.11;97105.09;10443091;28;20232;-64
2024/01/16 14:07:50;;;;;;;4.77;3.73;;;2.20;99.90;;;2.68;58.72;97116.16;10439269;28;20400;-65
2024/01/16 14:12:54;;;;;;;4.33;3.53;;;2.20;99.90;;;2.81;58.13;97101.97;10467441;28;20225;-65
2024/01/16 14:17:57;;;;;;;3.70;3.40;;;2.20;99.90;;;3.16;54.45;97090.28;10472312;28;20236;-65
2024/01/16 14:23:03;;;;;;;4.87;3.87;;;2.50;99.10;;;2.95;54.89;97096.28;10423411;28;20224;-65
2024/01/16 14:28:07;;;;;;;4.53;4.13;;;2.30;98.60;;;2.83;55.12;97092.84;10442088;28;20221;-65
2024/01/16 14:33:20;;;;;;;4.67;4.27;;;2.20;99.30;;;2.50;56.58;97086.19;10466720;28;20237;-65
2024/01/16 14:38:25;;;;;;;4.37;3.97;;;1.90;99.80;;;2.57;56.07;97099.34;10448711;28;20231;-66
2024/01/16 14:43:28;;;;;;;5.33;3.33;;;1.90;99.90;;;2.49;55.99;97095.41;10443090;28;20250;-66
2024/01/16 14:48:31;;;;;;;4.37;3.97;;;1.80;99.90;;;2.64;54.36;97101.56;10433815;28;20620;-65
2024/01/16 14:53:36;;;;;;;4.70;3.70;;;2.00;98.40;;;2.38;54.80;97093.72;10449225;28;20692;-66
2024/01/16 14:58:39;;;;;;;4.27;3.87;;;1.80;98.70;;;2.06;57.77;97096.28;10452857;28;20231;-66
2024/01/16 15:03:42;;;;;;;4.50;4.10;;;1.50;99.90;;;2.11;57.24;97080.75;10447061;28;20321;-65
2024/01/16 15:08:48;;;;;;;4.33;3.93;;;1.40;99.90;;;1.93;59.09;97081.88;10453151;28;20217;-65
2024/01/16 15:13:51;;;;;;;6.10;4.13;;;1.20;99.90;;;1.96;58.78;97080.44;10440417;28;20235;-65
2024/01/16 15:18:55;;;;;;;5.97;5.40;;;1.20;99.90;;;1.69;62.74;97088.38;10458326;28;20264;-65
2024/01/16 15:23:59;;;;;;;5.33;4.87;;;1.00;99.90;;;1.53;63.90;97096.38;10479735;28;20604;-65
2024/01/16 15:29:03;;;;;;;4.90;4.57;;;0.80;99.90;;;1.28;66.20;97094.44;10461304;28;20715;-65
2024/01/16 15:34:06;;;;;;;4.73;4.33;;;0.60;99.90;;;1.03;66.95;97095.72;10473299;28;20238;-65
2024/01/16 15:39:11;;;;;;;4.93;4.53;;;0.30;99.90;;;0.85;68.56;97096.00;10459336;28;21715;-65
2024/01/16 15:44:14;;;;;;;5.73;5.00;;;0.10;99.90;;;0.57;69.10;97097.91;10443859;28;20920;-65
2024/01/16 15:49:17;;;;;;;7.43;6.07;;;-0.10;99.90;;;0.35;70.97;97089.34;10449903;28;20322;-64
2024/01/16 15:54:23;;;;;;;10.07;6.53;;;-0.40;99.90;;;0.34;70.80;97088.44;10455366;28;20233;-65
2024/01/16 15:59:26;;;;;;;8.20;6.27;;;-0.50;99.90;;;0.17;71.36;97081.13;10454293;28;20236;-64
2024/01/16 16:04:29;;;;;;;7.63;6.00;;;-0.60;99.90;;;0.05;72.17;97078.47;10471230;28;20855;-64
2024/01/16 16:09:35;;;;;;;7.43;6.60;;;-0.80;99.90;;;-0.06;73.23;97081.72;10468346;28;20738;-65
2024/01/16 16:14:40;;;;;;;9.83;7.13;;;-0.90;99.90;;;0.05;75.67;97093.53;10474907;28;20225;-65
2024/01/16 16:19:45;;;;;;;10.00;6.83;;;-0.80;99.90;;;0.15;74.46;97107.78;10445558;28;20318;-64
2024/01/16 16:24:50;;;;;;;8.80;6.57;;;-0.70;99.90;;;0.08;73.76;97108.88;10456608;28;20287;-64
2024/01/16 16:29:56;;;;;;;8.30;7.00;;;-0.70;99.90;;;-0.06;76.72;97124.41;10459066;28;20236;-64
2024/01/16 16:35:00;;;;;;;6.70;5.80;;;-0.90;99.90;;;-0.11;76.82;97125.66;10465814;28;20261;-63
2024/01/16 16:40:05;;;;;;;7.83;4.87;;;-1.00;99.90;;;-0.32;75.50;97115.50;10446656;28;20241;-65
2024/01/16 16:45:11;;;;;;;5.77;4.60;;;-1.20;99.90;;;-0.40;75.66;97123.13;10457580;28;20233;-66
2024/01/16 16:50:14;;;;;;;5.87;4.93;;;-1.40;99.90;;;-0.61;76.46;97133.06;10448741;28;20270;-65
2024/01/16 16:55:19;;;;;;;10.37;8.77;;;-1.50;99.90;;;-0.78;77.76;97125.69;10442533;28;20277;-66
2024/01/16 17:00:22;;;;;;;12.70;10.97;;;-1.70;99.90;;;-1.01;78.03;97134.56;10462593;28;20510;-65
2024/01/16 17:05:25;;;;;;;14.73;11.17;;;-1.90;99.90;;;-1.25;78.86;97144.94;10447734;28;20697;-65
2024/01/16 17:10:30;;;;;;;12.60;9.33;;;-2.10;99.90;;;-1.42;77.60;97139.28;10430601;28;20229;-66
2024/01/16 17:15:33;;;;;;;8.23;7.17;;;-2.30;99.90;;;-1.51;78.65;97138.44;10426458;28;20230;-67
2024/01/16 17:20:37;;;;;;;7.67;6.97;;;-2.40;99.90;;;-1.66;79.66;97130.44;10458955;28;20228;-65
2024/01/16 17:25:41;;;;;;;6.63;6.10;;;-2.50;99.90;;;-1.80;79.31;97125.78;10455652;28;20324;-64
2024/01/16 17:30:46;;;;;;;6.63;6.13;;;-2.60;99.90;;;-1.85;81.29;97126.97;10456603;28;20594;-64
2024/01/16 17:35:49;;;;;;;8.10;7.00;;;-2.60;99.90;;;-1.96;81.35;97123.47;10458084;28;20714;-64
2024/01/16 17:40:54;;;;;;;7.03;5.50;;;-2.70;99.90;;;-2.02;82.14;97114.53;10462881;28;20929;-64
2024/01/16 17:45:57;;;;;;;11.00;7.70;;;-2.70;99.90;;;-2.11;82.62;97109.53;10449160;28;20228;-65
2024/01/16 17:51:01;;;;;;;14.97;11.27;;;-2.80;99.90;;;-2.26;82.34;97114.00;10447178;28;20236;-64
2024/01/16 17:56:08;;;;;;;9.23;8.27;;;-3.00;99.90;;;-2.33;83.17;97105.03;10458405;28;20236;-65
2024/01/16 18:01:12;;;;;;;9.47;8.07;;;-3.00;99.90;;;-2.47;85.24;97097.84;10444562;28;20701;-64
2024/01/16 18:06:16;;;;;;;8.37;7.57;;;-3.00;99.90;;;-2.45;86.04;97088.00;10447093;28;20511;-64
2024/01/16 18:11:23;;;;;;;6.77;6.10;;;-3.10;99.90;;;-2.44;85.01;97084.75;10468194;28;20893;-65
2024/01/16 18:16:26;;;;;;;7.00;6.40;;;-3.10;99.90;;;-2.48;86.53;97091.09;10422534;28;21020;-64
2024/01/16 18:21:29;;;;;;;9.40;6.57;;;-3.10;99.90;;;-2.53;86.15;97090.66;10447338;28;20232;-64
2024/01/16 18:26:36;;;;;;;7.93;7.13;;;-3.10;99.90;;;-2.68;87.04;97098.34;10460684;28;20221;-64
2024/01/16 18:31:39;;;;;;;17.60;13.07;;;-3.30;99.90;;;-2.73;86.20;97091.28;10457604;28;20232;-65
2024/01/16 18:36:48;;;;;;;18.93;13.93;;;-3.40;99.90;;;-2.76;86.36;97087.63;10448155;28;20239;-64
2024/01/16 18:41:53;;;;;;;11.60;9.43;;;-3.40;99.90;;;-2.90;88.19;97076.31;10464110;28;20251;-65
2024/01/16 18:46:56;;;;;;;9.80;8.80;;;-3.50;99.90;;;-2.92;88.93;97072.75;10424199;28;20679;-65
2024/01/16 18:52:00;;;;;;;10.27;9.10;;;-3.50;99.90;;;-2.96;87.39;97075.72;10443219;28;20933;-65
2024/01/16 18:57:09;;;;;;;11.70;8.93;;;-3.60;99.90;;;-2.94;87.24;97079.25;10435309;28;20228;-65
2024/01/16 19:02:13;;;;;;;12.47;9.87;;;-3.70;99.90;;;-3.05;88.13;97064.84;10444835;28;20244;-65
2024/01/16 19:07:23;;;;;;;11.40;8.50;;;-3.80;99.90;;;-3.27;89.01;97059.41;10445873;28;20710;-65
2024/01/16 19:12:28;;;;;;;10.10;8.60;;;-3.90;99.90;;;-3.34;88.80;97037.97;10429765;28;20230;-65
2024/01/16 19:17:31;;;;;;;13.20;10.83;;;-3.90;99.90;;;-3.40;89.43;97035.75;10460155;28;20724;-66
2024/01/16 19:22:34;;;;;;;12.90;9.17;;;-4.00;99.90;;;-3.41;89.09;97028.97;10460611;28;20229;-65
2024/01/16 19:27:40;;;;;;;11.40;10.20;;;-3.90;99.90;;;-3.45;89.76;97023.56;10420535;28;20244;-65
2024/01/16 19:32:44;;;;;;;15.17;13.47;;;-4.00;99.90;;;-3.42;90.02;97018.88;10447233;28;20316;-66
2024/01/16 19:37:48;;;;;;;11.90;10.70;;;-4.00;99.90;;;-3.43;90.24;97002.13;10451296;28;20232;-65
2024/01/16 19:42:54;;;;;;;17.53;12.77;;;-4.00;99.90;;;-3.38;90.20;96993.44;10444537;28;22483;-65
2024/01/16 19:47:57;;;;;;;13.37;10.70;;;-4.00;99.90;;;-3.42;89.30;96983.91;10441118;28;20259;-65
2024/01/16 19:53:02;;;;;;;21.10;14.97;;;-4.00;99.90;;;-3.50;90.04;96987.28;10429293;28;20248;-65
2024/01/16 19:58:08;;;;;;;24.07;15.00;;;-4.10;99.90;;;-3.57;90.70;96987.44;10435211;28;20254;-66
2024/01/16 20:03:12;;;;;;;14.70;12.60;;;-4.10;99.90;;;-3.62;89.69;96986.97;10461371;28;20242;-65
2024/01/16 20:08:16;;;;;;;16.37;12.90;;;-4.20;99.90;;;-3.62;90.05;96977.88;10469228;28;20247;-65
2024/01/16 20:13:20;;;;;;;14.73;12.37;;;-4.30;99.90;;;-3.70;89.56;96981.25;10469740;28;20275;-65
2024/01/16 20:18:23;;;;;;;20.80;15.53;;;-4.30;99.90;;;-3.91;89.64;96976.69;10460292;28;20232;-65
2024/01/16 20:23:28;;;;;;;18.77;16.73;;;-4.50;99.90;;;-3.90;89.84;96963.47;10443719;28;20714;-64
2024/01/16 20:28:33;;;;;;;17.43;15.50;;;-4.50;99.90;;;-4.13;89.90;96952.13;10454923;28;20770;-64
2024/01/16 20:33:36;;;;;;;15.07;13.30;;;-4.70;99.90;;;-4.11;90.63;96940.69;10441315;28;20232;-65
2024/01/16 20:38:40;;;;;;;16.17;14.43;;;-4.70;99.90;;;-4.16;90.70;96924.38;10463307;28;20224;-64
2024/01/16 20:43:44;;;;;;;16.23;13.47;;;-4.70;99.90;;;-4.05;90.18;96927.94;10459698;28;20306;-65
2024/01/16 20:48:48;;;;;;;17.27;12.83;;;-4.70;99.90;;;-4.22;91.30;96928.78;10421671;28;20217;-65
2024/01/16 20:53:51;;;;;;;16.43;13.23;;;-4.80;99.90;;;-4.28;91.24;96925.69;10429608;28;20382;-65
2024/01/16 20:58:56;;;;;;;16.47;13.37;;;-4.80;99.90;;;-4.31;91.80;96920.41;10439587;28;20232;-66
2024/01/16 21:03:59;;;;;;;16.63;13.70;;;-4.80;99.90;;;-4.23;91.29;96918.69;10455774;28;20696;-65
2024/01/16 21:09:03;;;;;;;14.83;12.83;;;-4.80;99.90;;;-4.23;91.63;96912.06;10458368;28;20227;-65